createdAt,value
2018-06-27T00:01:55.451Z,4.80
2018-06-27T00:04:22.464Z,4.50
2018-06-27T00:06:49.443Z,4.70
2018-06-27T00:09:16.387Z,4.03
2018-06-27T00:11:43.857Z,5.40
2018-06-27T00:14:10.807Z,4.63
2018-06-27T00:16:37.811Z,4.97
2018-06-27T00:19:04.790Z,4.57
2018-06-27T00:21:31.881Z,4.60
2018-06-27T00:23:58.828Z,5.10
2018-06-27T00:26:25.755Z,5.43
2018-06-27T00:28:52.734Z,4.77
2018-06-27T00:31:19.757Z,5.10
2018-06-27T00:33:46.707Z,4.50
2018-06-27T00:36:13.623Z,5.40
2018-06-27T00:38:40.557Z,5.37
2018-06-27T00:41:07.487Z,6.07
2018-06-27T00:43:34.418Z,6.30
2018-06-27T00:46:01.415Z,6.00
2018-06-27T00:48:28.340Z,5.37
2018-06-27T00:50:55.277Z,5.70
2018-06-27T00:53:26.880Z,4.87
2018-06-27T00:55:53.821Z,4.70
2018-06-27T00:58:20.768Z,5.57
2018-06-27T01:00:47.777Z,4.47
2018-06-27T01:03:14.737Z,5.00
2018-06-27T01:05:41.670Z,5.00
2018-06-27T01:08:08.620Z,4.93
2018-06-27T01:10:35.594Z,5.20
2018-06-27T01:13:02.556Z,5.13
2018-06-27T01:15:29.533Z,5.13
2018-06-27T01:17:57.305Z,5.00
2018-06-27T01:20:24.652Z,5.00
2018-06-27T01:22:51.617Z,5.50
2018-06-27T01:25:18.865Z,5.10
2018-06-27T01:27:46.363Z,5.50
2018-06-27T01:30:13.312Z,5.10
2018-06-27T01:32:40.260Z,5.53
2018-06-27T01:35:07.191Z,5.10
2018-06-27T01:37:34.127Z,5.30
2018-06-27T01:40:01.086Z,4.90
2018-06-27T01:42:28.040Z,4.73
2018-06-27T01:44:54.992Z,5.03
2018-06-27T01:47:21.935Z,4.70
2018-06-27T01:49:48.874Z,5.03
2018-06-27T01:52:15.839Z,4.83
2018-06-27T01:54:42.780Z,4.67
2018-06-27T01:57:09.724Z,4.90
2018-06-27T01:59:36.789Z,4.57
2018-06-27T02:02:03.740Z,4.60
2018-06-27T02:04:30.701Z,5.00
2018-06-27T02:06:57.956Z,5.73
2018-06-27T02:09:24.896Z,5.00
2018-06-27T02:11:51.811Z,5.03
2018-06-27T02:14:19.111Z,5.27
2018-06-27T02:16:46.032Z,4.90
2018-06-27T02:19:12.962Z,5.87
2018-06-27T02:21:39.912Z,4.87
2018-06-27T02:24:07.155Z,5.40
2018-06-27T02:26:34.085Z,5.40
2018-06-27T02:29:01.046Z,5.10
2018-06-27T02:31:28.010Z,5.30
2018-06-27T02:33:54.961Z,5.00
2018-06-27T02:36:21.934Z,5.70
2018-06-27T02:38:48.879Z,4.87
2018-06-27T02:41:15.846Z,5.60
2018-06-27T02:43:42.813Z,6.10
2018-06-27T02:46:09.748Z,4.83
2018-06-27T02:48:36.680Z,5.00
2018-06-27T02:51:03.668Z,5.40
2018-06-27T02:53:35.236Z,4.90
2018-06-27T02:56:02.212Z,5.30
2018-06-27T02:58:29.183Z,5.40
2018-06-27T03:00:56.132Z,6.03
2018-06-27T03:03:23.801Z,5.47
2018-06-27T03:05:50.737Z,5.00
2018-06-27T03:08:17.664Z,5.30
2018-06-27T03:10:44.620Z,5.27
2018-06-27T03:13:11.552Z,5.03
2018-06-27T03:15:38.501Z,5.70
2018-06-27T03:18:05.417Z,4.77
2018-06-27T03:20:32.357Z,4.97
2018-06-27T03:22:59.276Z,5.27
2018-06-27T03:25:26.251Z,5.57
2018-06-27T03:27:53.253Z,5.57
2018-06-27T03:30:20.165Z,5.50
2018-06-27T03:32:47.097Z,4.63
2018-06-27T03:35:14.067Z,4.83
2018-06-27T03:37:40.984Z,4.87
2018-06-27T03:40:07.953Z,4.90
2018-06-27T03:42:34.911Z,4.83
2018-06-27T03:45:01.867Z,5.00
2018-06-27T03:47:28.800Z,4.80
2018-06-27T03:49:55.737Z,4.70
2018-06-27T03:52:22.661Z,5.00
2018-06-27T03:54:49.611Z,5.27
2018-06-27T03:57:16.525Z,4.60
2018-06-27T03:59:43.462Z,4.73
2018-06-27T04:02:10.401Z,4.80
2018-06-27T04:04:37.346Z,4.93
2018-06-27T04:07:04.496Z,4.60
2018-06-27T04:09:31.423Z,5.50
2018-06-27T04:11:58.362Z,4.33
2018-06-27T04:14:25.324Z,4.60
2018-06-27T04:16:52.748Z,4.60
2018-06-27T04:19:19.702Z,5.10
2018-06-27T04:21:46.620Z,5.53
2018-06-27T04:24:13.554Z,5.33
2018-06-27T04:26:40.548Z,5.93
2018-06-27T04:29:07.487Z,5.80
2018-06-27T04:31:34.701Z,6.50
2018-06-27T04:34:01.936Z,4.90
2018-06-27T04:36:28.867Z,5.13
2018-06-27T04:38:55.791Z,5.47
2018-06-27T04:41:22.875Z,4.20
2018-06-27T04:43:49.815Z,5.30
2018-06-27T04:46:16.733Z,4.40
2018-06-27T04:48:43.713Z,3.97
2018-06-27T04:51:10.616Z,4.10
2018-06-27T04:53:37.543Z,3.90
2018-06-27T04:56:04.531Z,4.60
2018-06-27T04:58:31.459Z,3.90
2018-06-27T05:00:58.383Z,3.80
2018-06-27T05:03:25.305Z,3.53
2018-06-27T05:05:52.227Z,3.47
2018-06-27T05:08:19.161Z,4.10
2018-06-27T05:10:46.143Z,8.00
2018-06-27T05:13:13.062Z,4.57
2018-06-27T05:15:40.010Z,3.87
2018-06-27T05:18:06.957Z,4.10
2018-06-27T05:20:33.879Z,4.20
2018-06-27T05:23:00.787Z,4.80
2018-06-27T05:25:27.772Z,8.30
2018-06-27T05:27:54.697Z,4.87
2018-06-27T05:30:21.640Z,4.33
2018-06-27T05:32:48.583Z,4.67
2018-06-27T05:35:15.525Z,5.73
2018-06-27T05:37:42.489Z,4.23
2018-06-27T05:40:09.423Z,3.90
2018-06-27T05:42:36.370Z,3.50
2018-06-27T05:45:03.731Z,4.83
2018-06-27T05:47:30.693Z,4.00
2018-06-27T05:49:57.630Z,6.97
2018-06-27T05:52:24.572Z,4.40
2018-06-27T05:54:57.356Z,4.00
2018-06-27T05:57:24.271Z,4.10
2018-06-27T05:59:51.204Z,3.60
2018-06-27T06:02:18.178Z,3.93
2018-06-27T06:04:45.103Z,3.90
2018-06-27T06:07:12.030Z,4.00
2018-06-27T06:09:38.979Z,4.10
2018-06-27T06:12:05.911Z,3.70
2018-06-27T06:14:32.922Z,3.93
2018-06-27T06:16:59.934Z,4.20
2018-06-27T06:19:26.856Z,3.67
2018-06-27T06:21:53.874Z,4.20
2018-06-27T06:24:20.902Z,3.50
2018-06-27T06:26:47.833Z,3.67
2018-06-27T06:29:14.793Z,4.87
2018-06-27T06:31:41.752Z,3.63
2018-06-27T06:34:08.699Z,3.70
2018-06-27T06:36:35.667Z,3.30
2018-06-27T06:39:03.665Z,3.50
2018-06-27T06:41:30.611Z,4.30
2018-06-27T06:43:57.642Z,4.00
2018-06-27T06:46:24.787Z,4.00
2018-06-27T06:48:51.837Z,4.23
2018-06-27T06:51:18.886Z,2.80
2018-06-27T06:53:45.946Z,2.90
2018-06-27T06:56:13.217Z,3.67
2018-06-27T06:58:40.291Z,2.97
2018-06-27T07:01:07.650Z,4.00
2018-06-27T07:03:34.715Z,3.00
2018-06-27T07:06:01.729Z,3.83
2018-06-27T07:08:28.886Z,3.17
2018-06-27T07:10:55.949Z,3.13
2018-06-27T07:13:22.985Z,2.63
2018-06-27T07:15:50.035Z,3.10
2018-06-27T07:18:17.167Z,3.33
2018-06-27T07:20:44.194Z,3.70
2018-06-27T07:23:11.241Z,2.70
2018-06-27T07:25:38.294Z,4.00
2018-06-27T07:28:05.343Z,7.57
2018-06-27T07:30:32.385Z,3.97
2018-06-27T07:32:59.433Z,4.73
2018-06-27T07:35:26.486Z,3.57
2018-06-27T07:37:53.543Z,3.00
2018-06-27T07:40:20.649Z,4.10
2018-06-27T07:42:47.687Z,2.30
2018-06-27T07:45:14.760Z,2.60
2018-06-27T07:47:41.818Z,2.50
2018-06-27T07:50:08.861Z,2.83
2018-06-27T07:52:35.903Z,3.73
2018-06-27T07:55:02.991Z,3.13
2018-06-27T07:57:29.970Z,2.60
2018-06-27T07:59:57.035Z,2.80
2018-06-27T08:02:24.066Z,2.80
2018-06-27T08:04:51.111Z,2.03
2018-06-27T08:07:18.263Z,2.50
2018-06-27T08:09:45.285Z,2.77
2018-06-27T08:12:12.313Z,2.63
2018-06-27T08:14:39.371Z,2.30
2018-06-27T08:17:06.384Z,2.20
2018-06-27T08:19:33.448Z,1.57
2018-06-27T08:22:00.488Z,1.83
2018-06-27T08:24:27.512Z,2.50
2018-06-27T08:26:54.608Z,1.93
2018-06-27T08:29:21.683Z,5.10
2018-06-27T08:31:48.700Z,2.40
2018-06-27T08:34:15.771Z,1.20
2018-06-27T08:36:42.931Z,1.67
2018-06-27T08:39:10.472Z,3.10
2018-06-27T08:41:37.719Z,2.10
2018-06-27T08:44:04.768Z,2.40
2018-06-27T08:46:32.022Z,1.60
2018-06-27T08:48:59.113Z,1.80
2018-06-27T08:51:26.198Z,8.13
2018-06-27T08:53:53.274Z,3.20
2018-06-27T08:56:20.295Z,5.80
2018-06-27T08:58:47.400Z,2.43
2018-06-27T09:01:14.468Z,2.27
2018-06-27T09:03:41.545Z,2.53
2018-06-27T09:06:08.636Z,2.73
2018-06-27T09:08:35.699Z,2.70
2018-06-27T09:11:02.744Z,2.97
2018-06-27T09:13:29.816Z,5.03
2018-06-27T09:15:56.881Z,7.10
2018-06-27T09:18:23.925Z,3.00
2018-06-27T09:20:50.987Z,2.00
2018-06-27T09:23:18.032Z,2.17
2018-06-27T09:25:45.086Z,1.83
2018-06-27T09:28:12.211Z,2.50
2018-06-27T09:30:39.267Z,2.03
2018-06-27T09:33:06.317Z,2.30
2018-06-27T09:35:33.376Z,3.07
2018-06-27T09:38:00.435Z,5.50
2018-06-27T09:40:27.488Z,3.87
2018-06-27T09:42:54.566Z,2.23
2018-06-27T09:45:21.649Z,2.53
2018-06-27T09:47:48.695Z,4.07
2018-06-27T09:50:15.805Z,2.10
2018-06-27T09:52:42.798Z,2.20
2018-06-27T09:55:09.836Z,2.00
2018-06-27T09:57:36.893Z,4.80
2018-06-27T10:00:04.069Z,2.93
2018-06-27T10:02:31.136Z,2.77
2018-06-27T10:04:58.172Z,3.57
2018-06-27T10:07:25.220Z,2.20
2018-06-27T10:09:52.266Z,2.70
2018-06-27T10:12:19.920Z,3.63
2018-06-27T10:14:46.933Z,2.00
2018-06-27T10:17:13.989Z,1.87
2018-06-27T10:19:41.011Z,2.00
2018-06-27T10:22:08.048Z,1.90
2018-06-27T10:24:35.079Z,3.40
2018-06-27T10:27:02.124Z,2.20
2018-06-27T10:29:30.531Z,2.30
2018-06-27T10:31:57.562Z,1.90
2018-06-27T10:34:24.598Z,2.10
2018-06-27T10:36:51.823Z,2.00
2018-06-27T10:39:18.987Z,2.03
2018-06-27T10:41:46.061Z,2.10
2018-06-27T10:44:13.111Z,2.93
2018-06-27T10:46:40.237Z,2.47
2018-06-27T10:49:07.284Z,2.40
2018-06-27T10:51:34.327Z,2.17
2018-06-27T10:54:01.382Z,2.93
2018-06-27T10:56:29.023Z,2.53
2018-06-27T10:58:56.442Z,2.70
2018-06-27T11:01:24.149Z,1.70
2018-06-27T11:03:51.243Z,1.70
2018-06-27T11:06:18.470Z,2.00
2018-06-27T11:08:45.548Z,2.00
2018-06-27T11:11:12.612Z,3.00
2018-06-27T11:13:39.655Z,2.63
2018-06-27T11:16:06.769Z,2.30
2018-06-27T11:18:33.804Z,2.70
2018-06-27T11:21:00.879Z,1.93
2018-06-27T11:23:27.980Z,3.17
2018-06-27T11:25:55.294Z,2.90
2018-06-27T11:28:22.369Z,1.97
2018-06-27T11:30:49.465Z,2.00
2018-06-27T11:33:16.553Z,1.60
2018-06-27T11:35:43.595Z,2.00
2018-06-27T11:38:10.663Z,2.10
2018-06-27T11:40:37.845Z,2.10
2018-06-27T11:43:05.118Z,2.10
2018-06-27T11:45:32.170Z,2.30
2018-06-27T11:47:59.234Z,4.47
2018-06-27T11:50:26.296Z,2.40
2018-06-27T11:52:53.333Z,2.20
2018-06-27T11:55:20.417Z,1.93
2018-06-27T11:57:47.476Z,2.00
2018-06-27T12:00:14.496Z,1.93
2018-06-27T12:02:41.581Z,2.17
2018-06-27T12:05:09.465Z,2.80
2018-06-27T12:07:36.515Z,3.20
2018-06-27T12:10:03.618Z,1.80
2018-06-27T12:12:30.739Z,3.07
2018-06-27T12:14:57.831Z,1.60
2018-06-27T12:17:24.956Z,2.63
2018-06-27T12:19:52.062Z,3.07
2018-06-27T12:22:19.148Z,2.20
2018-06-27T12:24:46.212Z,1.97
2018-06-27T12:27:13.252Z,2.80
2018-06-27T12:29:40.324Z,2.27
2018-06-27T12:32:07.436Z,3.40
2018-06-27T12:34:34.477Z,3.13
2018-06-27T12:37:01.508Z,2.60
2018-06-27T12:39:28.596Z,2.03
2018-06-27T12:41:55.645Z,2.30
2018-06-27T12:44:22.750Z,2.33
2018-06-27T12:46:49.783Z,2.13
2018-06-27T12:49:16.991Z,3.50
2018-06-27T12:51:44.028Z,4.50
2018-06-27T12:54:11.081Z,2.63
2018-06-27T12:56:38.120Z,2.70
2018-06-27T12:59:05.184Z,2.10
2018-06-27T13:01:32.264Z,2.60
2018-06-27T13:03:59.372Z,1.77
2018-06-27T13:06:26.413Z,2.57
2018-06-27T13:08:53.617Z,2.30
2018-06-27T13:11:20.565Z,2.37
2018-06-27T13:13:47.651Z,2.30
2018-06-27T13:16:14.696Z,2.20
2018-06-27T13:18:41.748Z,2.97
2018-06-27T13:21:08.808Z,2.27
2018-06-27T13:23:35.902Z,2.60
2018-06-27T13:26:02.948Z,4.00
2018-06-27T13:28:30.043Z,3.50
2018-06-27T13:30:57.107Z,2.80
2018-06-27T13:33:24.238Z,2.20
2018-06-27T13:35:51.296Z,3.20
2018-06-27T13:38:18.362Z,2.37
2018-06-27T13:40:45.396Z,2.37
2018-06-27T13:43:12.507Z,2.20
2018-06-27T13:45:39.555Z,2.70
2018-06-27T13:48:06.621Z,2.50
2018-06-27T13:50:33.675Z,1.83
2018-06-27T13:53:00.762Z,2.97
2018-06-27T13:55:27.853Z,1.70
2018-06-27T13:57:54.921Z,2.90
2018-06-27T14:00:21.967Z,5.00
2018-06-27T14:02:49.016Z,2.23
2018-06-27T14:05:16.064Z,2.47
2018-06-27T14:07:43.112Z,2.40
2018-06-27T14:10:10.141Z,2.40
2018-06-27T14:12:37.200Z,2.93
2018-06-27T14:15:04.500Z,4.40
2018-06-27T14:17:31.648Z,3.00
2018-06-27T14:19:58.756Z,3.70
2018-06-27T14:22:25.821Z,3.27
2018-06-27T14:24:52.888Z,3.87
2018-06-27T14:27:19.961Z,3.87
2018-06-27T14:29:47.010Z,2.70
2018-06-27T14:32:14.072Z,4.60
2018-06-27T14:34:41.136Z,3.53
2018-06-27T14:37:08.233Z,3.33
2018-06-27T14:39:35.288Z,3.70
2018-06-27T14:42:02.352Z,2.83
2018-06-27T14:44:29.400Z,3.27
2018-06-27T14:46:56.456Z,5.37
2018-06-27T14:49:23.556Z,3.93
2018-06-27T14:51:50.604Z,5.30
2018-06-27T14:54:17.674Z,5.60
2018-06-27T14:56:44.732Z,3.37
2018-06-27T14:59:11.800Z,3.00
2018-06-27T15:01:38.857Z,3.87
2018-06-27T15:04:05.915Z,3.03
2018-06-27T15:06:32.968Z,3.30
2018-06-27T15:09:00.088Z,3.60
2018-06-27T15:11:27.240Z,3.77
2018-06-27T15:13:54.323Z,3.53
2018-06-27T15:16:21.364Z,3.50
2018-06-27T15:18:48.899Z,4.10
2018-06-27T15:21:15.944Z,3.00
2018-06-27T15:23:43.083Z,4.03
2018-06-27T15:26:10.037Z,2.57
2018-06-27T15:28:37.052Z,3.00
2018-06-27T15:31:05.188Z,2.77
2018-06-27T15:33:32.228Z,2.53
2018-06-27T15:35:59.266Z,4.10
2018-06-27T15:38:26.306Z,2.70
2018-06-27T15:40:53.340Z,3.27
2018-06-27T15:43:20.379Z,3.07
2018-06-27T15:45:47.400Z,2.40
2018-06-27T15:48:14.515Z,2.43
2018-06-27T15:50:41.532Z,2.47
2018-06-27T15:53:08.572Z,2.70
2018-06-27T15:55:35.603Z,2.90
2018-06-27T15:58:02.635Z,4.20
2018-06-27T16:00:29.663Z,6.93
2018-06-27T16:02:56.711Z,3.47
2018-06-27T16:05:23.758Z,3.93
2018-06-27T16:07:50.800Z,3.10
2018-06-27T16:10:17.837Z,3.93
2018-06-27T16:12:44.887Z,3.20
2018-06-27T16:15:11.924Z,4.30
2018-06-27T16:17:39.011Z,3.00
2018-06-27T16:20:06.350Z,3.30
2018-06-27T16:22:33.403Z,3.13
2018-06-27T16:25:00.443Z,2.80
2018-06-27T16:27:27.485Z,3.60
2018-06-27T16:29:54.551Z,8.87
2018-06-27T16:32:21.621Z,4.17
2018-06-27T16:34:48.953Z,3.97
2018-06-27T16:37:16.005Z,4.00
2018-06-27T16:39:43.071Z,3.20
2018-06-27T16:42:10.142Z,5.20
2018-06-27T16:44:37.210Z,3.60
2018-06-27T16:47:04.325Z,3.00
2018-06-27T16:49:32.147Z,2.87
2018-06-27T16:51:59.388Z,3.10
2018-06-27T16:54:26.471Z,2.80
2018-06-27T16:56:53.804Z,2.73
2018-06-27T16:59:20.848Z,2.90
2018-06-27T17:01:47.876Z,2.40
2018-06-27T17:04:14.993Z,2.70
2018-06-27T17:06:41.996Z,3.20
2018-06-27T17:09:09.938Z,2.70
2018-06-27T17:11:37.748Z,2.97
2018-06-27T17:14:04.808Z,4.30
2018-06-27T17:16:31.964Z,3.70
2018-06-27T17:18:59.065Z,8.23
2018-06-27T17:21:26.067Z,6.80
2018-06-27T17:23:53.108Z,5.30
2018-06-27T17:26:20.143Z,3.97
2018-06-27T17:28:47.191Z,3.30
2018-06-27T17:31:14.265Z,3.50
2018-06-27T17:33:41.327Z,4.20
2018-06-27T17:36:08.398Z,2.60
2018-06-27T17:38:35.451Z,2.93
2018-06-27T17:41:02.491Z,3.97
2018-06-27T17:43:29.520Z,3.27
2018-06-27T17:45:56.617Z,3.60
2018-06-27T17:48:23.668Z,3.03
2018-06-27T17:50:50.744Z,3.30
2018-06-27T17:53:17.823Z,3.50
2018-06-27T17:55:44.919Z,4.20
2018-06-27T17:58:11.964Z,3.50
2018-06-27T18:00:39.017Z,3.57
2018-06-27T18:03:06.065Z,5.03
2018-06-27T18:05:33.095Z,3.80
2018-06-27T18:08:00.178Z,3.77
2018-06-27T18:10:27.240Z,3.63
2018-06-27T18:12:54.396Z,4.00
2018-06-27T18:15:21.491Z,5.17
2018-06-27T18:17:48.532Z,4.67
2018-06-27T18:20:15.595Z,3.67
2018-06-27T18:22:42.644Z,3.10
2018-06-27T18:25:09.702Z,4.07
2018-06-27T18:27:37.059Z,3.57
2018-06-27T18:30:04.521Z,3.20
2018-06-27T18:32:31.656Z,2.90
2018-06-27T18:34:58.705Z,3.57
2018-06-27T18:37:25.752Z,3.43
2018-06-27T18:39:52.862Z,4.60
2018-06-27T18:42:19.913Z,4.33
2018-06-27T18:44:46.988Z,2.80
2018-06-27T18:47:14.048Z,3.33
2018-06-27T18:49:41.076Z,3.37
2018-06-27T18:52:08.124Z,3.73
2018-06-27T18:54:35.168Z,3.77
2018-06-27T18:57:02.216Z,3.50
2018-06-27T18:59:29.252Z,4.33
2018-06-27T19:01:56.336Z,4.00
2018-06-27T19:04:23.856Z,4.53
2018-06-27T19:06:50.943Z,4.90
2018-06-27T19:09:18.032Z,4.70
2018-06-27T19:11:45.077Z,4.70
2018-06-27T19:14:12.127Z,4.40
2018-06-27T19:16:39.163Z,3.90
2018-06-27T19:19:06.908Z,5.23
2018-06-27T19:21:33.910Z,6.00
2018-06-27T19:24:00.983Z,4.73
2018-06-27T19:26:28.012Z,5.10
2018-06-27T19:28:55.075Z,6.23
2018-06-27T19:31:22.159Z,7.07
2018-06-27T19:33:49.261Z,6.10
2018-06-27T19:36:16.317Z,6.37
2018-06-27T19:38:43.404Z,5.53
2018-06-27T19:41:10.564Z,6.30
2018-06-27T19:43:37.607Z,5.93
2018-06-27T19:46:04.731Z,5.33
2018-06-27T19:48:31.787Z,6.87
2018-06-27T19:50:58.852Z,8.00
2018-06-27T19:53:25.935Z,7.87
2018-06-27T19:55:52.972Z,8.07
2018-06-27T19:58:20.027Z,9.40
2018-06-27T20:00:47.176Z,9.70
2018-06-27T20:03:14.270Z,6.83
2018-06-27T20:05:41.940Z,9.40
2018-06-27T20:08:09.276Z,9.13
2018-06-27T20:10:36.694Z,10.80
2018-06-27T20:13:04.285Z,19.47
2018-06-27T20:15:31.228Z,8.23
2018-06-27T20:17:58.345Z,7.07
2018-06-27T20:20:25.455Z,5.93
2018-06-27T20:22:52.600Z,6.50
2018-06-27T20:25:19.635Z,6.40
2018-06-27T20:27:46.683Z,5.70
2018-06-27T20:30:13.858Z,6.37
2018-06-27T20:32:40.919Z,5.70
2018-06-27T20:35:07.984Z,5.10
2018-06-27T20:37:35.153Z,5.47
2018-06-27T20:40:02.318Z,4.93
2018-06-27T20:42:29.374Z,4.90
2018-06-27T20:44:56.481Z,5.30
2018-06-27T20:47:23.592Z,5.33
2018-06-27T20:49:50.686Z,5.80
2018-06-27T20:52:17.830Z,6.60
2018-06-27T20:54:44.852Z,5.90
2018-06-27T20:57:11.950Z,5.67
2018-06-27T20:59:39.036Z,6.10
2018-06-27T21:02:06.076Z,6.10
2018-06-27T21:04:33.138Z,5.60
2018-06-27T21:07:00.268Z,5.50
2018-06-27T21:09:27.591Z,6.30
2018-06-27T21:11:54.651Z,6.07
2018-06-27T21:14:21.703Z,5.67
2018-06-27T21:16:48.740Z,6.63
2018-06-27T21:19:15.776Z,5.93
2018-06-27T21:21:42.817Z,5.73
2018-06-27T21:24:09.880Z,5.10
2018-06-27T21:26:36.897Z,5.40
2018-06-27T21:29:03.988Z,4.93
2018-06-27T21:31:31.015Z,5.20
2018-06-27T21:33:58.052Z,6.10
2018-06-27T21:36:25.093Z,5.00
2018-06-27T21:38:52.304Z,5.10
2018-06-27T21:41:19.502Z,5.47
2018-06-27T21:43:46.560Z,5.10
2018-06-27T21:46:13.599Z,6.27
2018-06-27T21:48:40.677Z,5.83
2018-06-27T21:51:07.734Z,5.23
2018-06-27T21:53:34.799Z,6.27
2018-06-27T21:56:01.877Z,5.93
2018-06-27T21:58:29.246Z,5.80
2018-06-27T22:00:56.353Z,6.23
2018-06-27T22:03:23.427Z,6.10
2018-06-27T22:05:50.550Z,5.50
2018-06-27T22:08:17.637Z,6.60
2018-06-27T22:10:44.682Z,7.37
2018-06-27T22:13:11.769Z,7.80
2018-06-27T22:15:38.885Z,5.67
2018-06-27T22:18:05.987Z,5.80
2018-06-27T22:20:33.026Z,6.00
2018-06-27T22:23:00.324Z,6.27
2018-06-27T22:25:27.379Z,6.57
2018-06-27T22:27:54.451Z,5.30
2018-06-27T22:30:22.005Z,6.07
2018-06-27T22:32:49.194Z,5.57
2018-06-27T22:35:16.228Z,6.23
2018-06-27T22:37:43.272Z,5.57
2018-06-27T22:40:10.439Z,6.30
2018-06-27T22:42:37.564Z,5.57
2018-06-27T22:45:04.673Z,5.30
2018-06-27T22:47:31.928Z,5.70
2018-06-27T22:49:59.100Z,5.87
2018-06-27T22:52:26.260Z,5.80
2018-06-27T22:54:53.386Z,5.70
2018-06-27T22:57:20.467Z,4.97
2018-06-27T22:59:47.630Z,5.33
2018-06-27T23:02:14.672Z,5.60
2018-06-27T23:04:41.768Z,6.10
2018-06-27T23:07:08.802Z,7.30
2018-06-27T23:09:35.828Z,8.97
2018-06-27T23:12:02.920Z,5.50
2018-06-27T23:14:30.108Z,4.93
2018-06-27T23:16:57.141Z,5.30
2018-06-27T23:19:24.318Z,5.27
2018-06-27T23:21:51.292Z,5.20
2018-06-27T23:24:18.379Z,5.00
2018-06-27T23:26:45.473Z,5.20
2018-06-27T23:29:12.536Z,5.60
2018-06-27T23:31:39.571Z,4.80
2018-06-27T23:34:06.801Z,5.77
2018-06-27T23:36:33.848Z,5.40
2018-06-27T23:39:00.981Z,5.60
2018-06-27T23:41:28.170Z,5.40
2018-06-27T23:43:55.304Z,6.23
2018-06-27T23:46:22.476Z,5.07
2018-06-27T23:48:49.529Z,5.00
2018-06-27T23:51:16.580Z,5.33
2018-06-27T23:53:43.636Z,5.43
2018-06-27T23:56:10.715Z,5.30
2018-06-27T23:58:37.803Z,5.97
